Time;durP1;ratioP1;P1;durP2;ratioP2;P2;SDS_P1;SDS_P2;PMS_P1;PMS_P2;Temp;Humidity;BMP_temperature;BMP_pressure;BME280_temperature;BME280_humidity;BME280_pressure;Samples;Min_cycle;Max_cycle;Signal;HPM_P1;HPM_P2
2022/06/02 00:00:08;;;;;;;8.02;4.75;;;10.30;99.90;;;;;;5024371;28;20026;-74
2022/06/02 00:02:55;;;;;;;10.70;4.80;;;10.30;99.90;;;;;;5024647;28;20036;-73
2022/06/02 00:05:50;;;;;;;11.35;4.85;;;10.30;99.90;;;;;;5007399;28;20030;-75
2022/06/02 00:08:45;;;;;;;7.47;4.43;;;10.20;99.90;;;;;;5024520;28;20022;-72
2022/06/02 00:11:59;;;;;;;10.15;5.13;;;10.20;99.90;;;;;;5024478;28;20032;-73
2022/06/02 00:14:40;;;;;;;10.07;5.82;;;10.20;99.90;;;;;;5024686;28;20034;-73
2022/06/02 00:17:27;;;;;;;9.93;5.85;;;10.10;99.90;;;;;;5024773;28;20030;-73
2022/06/02 00:20:05;;;;;;;6.30;4.10;;;10.20;99.90;;;;;;5024836;28;20498;-74
2022/06/02 00:22:46;;;;;;;9.45;5.07;;;10.10;99.90;;;;;;5024620;28;20018;-73
2022/06/02 00:25:37;;;;;;;8.77;5.10;;;10.10;99.90;;;;;;5007030;28;20029;-73
2022/06/02 00:28:38;;;;;;;8.75;4.93;;;10.10;99.90;;;;;;4995957;28;20026;-74
2022/06/02 00:31:14;;;;;;;8.70;5.38;;;10.10;99.90;;;;;;5018965;28;20034;-75
2022/06/02 00:34:12;;;;;;;7.95;4.78;;;10.10;99.90;;;;;;5024508;28;20034;-73
2022/06/02 00:37:00;;;;;;;17.95;4.80;;;10.10;99.90;;;;;;5024512;28;20026;-74
2022/06/02 00:39:30;;;;;;;8.77;5.10;;;10.10;99.90;;;;;;5024483;28;20104;-73
2022/06/02 00:42:30;;;;;;;11.40;5.50;;;10.10;99.90;;;;;;5023987;28;20045;-73
2022/06/02 00:45:07;;;;;;;7.75;4.72;;;10.00;99.90;;;;;;5023687;28;20060;-72
2022/06/02 00:47:58;;;;;;;7.88;4.43;;;10.00;99.90;;;;;;5023973;28;20025;-74
2022/06/02 00:50:32;;;;;;;6.75;4.60;;;10.00;99.90;;;;;;5006386;28;20034;-73
2022/06/02 00:53:19;;;;;;;9.20;5.60;;;9.90;99.90;;;;;;5023663;28;20018;-73
2022/06/02 00:58:58;;;;;;;11.68;4.82;;;9.80;99.90;;;;;;5024048;28;20088;-72
2022/06/02 01:01:31;;;;;;;7.45;4.03;;;9.80;99.90;;;;;;5024225;28;20084;-71
2022/06/02 01:03:58;;;;;;;8.13;4.93;;;9.80;99.90;;;;;;5023826;28;20021;-72
2022/06/02 01:06:50;;;;;;;8.95;5.13;;;9.70;99.90;;;;;;5023627;28;20030;-73
2022/06/02 01:09:18;;;;;;;7.50;4.38;;;9.80;99.90;;;;;;5023681;28;20026;-74
2022/06/02 01:12:16;;;;;;;7.63;4.28;;;9.70;99.90;;;;;;5023456;28;20026;-73
2022/06/02 01:14:51;;;;;;;7.95;4.30;;;9.70;99.90;;;;;;5023069;28;20072;-72
2022/06/02 01:17:19;;;;;;;7.78;4.95;;;9.70;99.90;;;;;;5023345;28;20040;-72
2022/06/02 01:20:06;;;;;;;7.80;4.38;;;9.70;99.90;;;;;;5022932;28;20041;-70
2022/06/02 01:22:59;;;;;;;10.55;5.03;;;9.70;99.90;;;;;;5023390;28;20516;-73
2022/06/02 01:25:43;;;;;;;8.63;5.10;;;9.60;99.90;;;;;;5005680;28;20044;-72
2022/06/02 01:28:54;;;;;;;8.43;4.80;;;9.60;99.90;;;;;;5023425;28;20026;-73
2022/06/02 01:31:38;;;;;;;5.57;3.53;;;9.50;99.90;;;;;;5010460;28;20040;-74
2022/06/02 01:34:13;;;;;;;9.38;4.85;;;9.50;99.90;;;;;;5023350;28;20033;-72
2022/06/02 01:37:08;;;;;;;8.93;4.18;;;9.40;99.90;;;;;;5023413;28;20026;-72
2022/06/02 01:39:48;;;;;;;13.95;4.38;;;9.40;99.90;;;;;;4976858;28;20046;-73
2022/06/02 01:42:26;;;;;;;7.97;4.28;;;9.40;99.90;;;;;;5005697;28;20029;-73
2022/06/02 01:45:09;;;;;;;11.30;4.88;;;9.40;99.90;;;;;;5022855;28;20018;-71
2022/06/02 01:47:38;;;;;;;9.25;4.68;;;9.30;99.90;;;;;;5005498;28;20022;-73
2022/06/02 01:50:40;;;;;;;7.82;3.97;;;9.30;99.90;;;;;;5004882;28;20026;-74
2022/06/02 01:53:15;;;;;;;7.18;3.85;;;9.30;99.90;;;;;;5005753;28;20038;-72
2022/06/02 01:55:41;;;;;;;12.73;4.75;;;9.40;99.90;;;;;;5022469;28;20033;-75
2022/06/02 01:58:40;;;;;;;6.13;3.97;;;9.20;99.90;;;;;;5022883;28;20042;-73
2022/06/02 02:01:09;;;;;;;12.40;4.95;;;9.20;99.90;;;;;;5004581;28;20394;-74
2022/06/02 02:03:49;;;;;;;7.68;4.80;;;9.20;99.90;;;;;;5022644;28;20028;-73
2022/06/02 02:06:27;;;;;;;7.55;4.55;;;9.20;99.90;;;;;;5005397;28;20892;-73
2022/06/02 02:09:03;;;;;;;7.30;4.55;;;9.20;99.90;;;;;;5022930;28;20034;-74
2022/06/02 02:11:44;;;;;;;12.77;5.03;;;9.20;99.90;;;;;;5005127;28;20046;-72
2022/06/02 02:14:37;;;;;;;7.93;4.38;;;9.20;99.90;;;;;;5022120;28;20045;-73
2022/06/02 02:17:14;;;;;;;11.43;4.57;;;9.20;99.90;;;;;;5022582;28;20026;-72
2022/06/02 02:19:49;;;;;;;10.80;4.70;;;9.20;99.90;;;;;;5004450;28;20042;-73
2022/06/02 02:22:27;;;;;;;9.13;5.43;;;9.10;99.90;;;;;;5005225;28;20026;-74
2022/06/02 02:25:01;;;;;;;13.18;5.28;;;9.10;99.90;;;;;;5022837;28;20030;-74
2022/06/02 02:30:27;;;;;;;9.95;5.15;;;9.20;99.90;;;;;;5022568;28;20091;-73
2022/06/02 02:33:20;;;;;;;9.00;5.10;;;9.20;99.90;;;;;;5008275;28;20022;-72
2022/06/02 02:35:54;;;;;;;9.77;4.80;;;9.20;99.90;;;;;;5026187;28;20057;-74
2022/06/02 02:38:46;;;;;;;7.88;4.32;;;9.10;99.90;;;;;;5008883;28;20061;-74
2022/06/02 02:41:28;;;;;;;8.52;5.57;;;9.20;99.90;;;;;;5014832;28;20065;-73
2022/06/02 02:44:20;;;;;;;13.50;5.22;;;9.10;99.90;;;;;;5026530;28;20030;-73
2022/06/02 02:47:01;;;;;;;11.98;5.53;;;9.10;99.90;;;;;;5026531;28;20033;-74
2022/06/02 02:49:34;;;;;;;16.88;5.82;;;9.00;99.90;;;;;;5026359;28;20506;-73
2022/06/02 02:52:29;;;;;;;11.10;6.07;;;9.00;99.90;;;;;;5026424;28;20029;-73
2022/06/02 02:54:58;;;;;;;8.25;4.80;;;8.90;99.90;;;;;;5026192;28;20022;-73
2022/06/02 02:57:45;;;;;;;12.98;5.68;;;9.00;99.90;;;;;;5026303;28;20056;-73
2022/06/02 03:00:17;;;;;;;15.25;6.75;;;9.00;99.90;;;;;;5007979;28;20418;-73
2022/06/02 03:03:03;;;;;;;12.52;6.28;;;9.00;99.90;;;;;;5025608;28;20026;-75
2022/06/02 03:05:43;;;;;;;11.02;5.25;;;9.00;99.90;;;;;;5026069;28;20064;-73
2022/06/02 03:08:21;;;;;;;15.40;7.82;;;9.00;99.90;;;;;;5026228;28;20022;-74
2022/06/02 03:10:55;;;;;;;12.88;5.70;;;9.10;99.90;;;;;;5026245;28;20068;-73
2022/06/02 03:13:38;;;;;;;14.50;6.25;;;9.00;99.90;;;;;;5008474;28;20018;-73
2022/06/02 03:16:09;;;;;;;13.80;6.82;;;9.00;99.90;;;;;;5008352;28;20042;-73
2022/06/02 03:18:49;;;;;;;12.48;6.32;;;9.10;99.90;;;;;;5008023;28;20037;-73
2022/06/02 03:21:35;;;;;;;12.60;5.22;;;9.10;99.90;;;;;;5008045;28;20387;-73
2022/06/02 03:24:13;;;;;;;10.27;5.72;;;9.10;99.90;;;;;;5024894;28;20045;-73
2022/06/02 03:26:55;;;;;;;11.25;5.80;;;9.10;99.90;;;;;;5007965;28;20026;-72
2022/06/02 03:29:27;;;;;;;14.90;6.32;;;9.00;99.90;;;;;;5026012;28;20025;-73
2022/06/02 03:31:58;;;;;;;12.55;6.82;;;9.00;99.90;;;;;;5008014;28;20026;-74
2022/06/02 03:34:59;;;;;;;9.63;5.38;;;9.10;99.90;;;;;;5025360;28;20024;-73
2022/06/02 03:37:27;;;;;;;11.25;7.13;;;9.00;99.90;;;;;;5011530;28;20038;-73
2022/06/02 03:40:23;;;;;;;17.80;6.85;;;9.00;99.90;;;;;;5007582;28;20055;-72
2022/06/02 03:43:10;;;;;;;9.75;5.60;;;9.00;99.90;;;;;;5024910;28;20025;-73
2022/06/02 03:46:26;;;;;;;10.55;6.20;;;9.00;99.90;;;;;;5002289;28;20041;-73
2022/06/02 03:49:15;;;;;;;18.77;6.03;;;8.90;99.90;;;;;;4999450;28;20069;-74
2022/06/02 03:52:10;;;;;;;14.68;6.75;;;9.00;99.90;;;;;;4979215;28;20116;-73
2022/06/02 03:54:43;;;;;;;14.43;6.68;;;8.90;99.90;;;;;;5007297;28;20049;-74
2022/06/02 03:57:34;;;;;;;14.50;6.68;;;8.90;99.90;;;;;;5025213;28;20068;-71
2022/06/02 04:00:20;;;;;;;10.93;5.93;;;9.00;99.90;;;;;;4986715;28;20042;-74
2022/06/02 04:02:54;;;;;;;12.02;6.32;;;9.00;99.90;;;;;;5024856;28;20033;-74
2022/06/02 04:05:20;;;;;;;;;;;9.00;99.90;;;;;;5025546;28;20053;-74
2022/06/02 04:07:55;;;;;;;10.77;6.03;;;9.00;99.90;;;;;;5025107;28;19932;-72
2022/06/02 04:10:44;;;;;;;11.38;5.78;;;9.00;99.90;;;;;;5025083;28;20064;-74
2022/06/02 04:13:40;;;;;;;11.38;6.03;;;9.00;99.90;;;;;;5007147;28;20025;-74
2022/06/02 04:16:27;;;;;;;13.93;6.88;;;9.00;99.90;;;;;;5007043;28;20042;-72
2022/06/02 04:18:58;;;;;;;16.60;6.85;;;9.00;99.90;;;;;;5024447;28;20034;-74
2022/06/02 04:21:29;;;;;;;15.27;7.53;;;9.10;99.90;;;;;;5007310;28;20021;-75
2022/06/02 04:24:09;;;;;;;16.15;7.75;;;9.10;99.90;;;;;;5024652;28;20025;-75
2022/06/02 04:26:50;;;;;;;15.88;6.93;;;9.10;99.90;;;;;;5024578;28;20064;-74
2022/06/02 04:29:40;;;;;;;16.08;8.23;;;9.10;99.90;;;;;;5024580;28;20085;-73
2022/06/02 04:32:29;;;;;;;11.45;6.85;;;9.00;99.90;;;;;;5024426;28;20030;-70
2022/06/02 04:35:16;;;;;;;13.00;7.25;;;9.00;99.90;;;;;;5006519;28;20022;-72
2022/06/02 04:37:45;;;;;;;17.38;8.10;;;9.00;99.90;;;;;;5024152;28;20022;-73
2022/06/02 04:40:56;;;;;;;19.85;7.20;;;9.00;99.90;;;;;;5023951;28;20034;-73
2022/06/02 04:43:58;;;;;;;14.82;7.10;;;8.90;99.90;;;;;;4998043;28;20052;-72
2022/06/02 04:46:42;;;;;;;11.00;6.53;;;8.90;99.90;;;;;;5006813;28;20049;-72
2022/06/02 04:49:33;;;;;;;12.40;7.57;;;8.90;99.90;;;;;;5024033;28;20080;-71
2022/06/02 04:52:47;;;;;;;14.88;6.95;;;8.90;99.90;;;;;;5006217;28;20441;-71
2022/06/02 04:55:48;;;;;;;14.38;6.97;;;9.00;99.90;;;;;;5014387;28;20034;-70
2022/06/02 04:58:45;;;;;;;11.05;6.25;;;9.00;99.90;;;;;;5006120;28;20044;-71
2022/06/02 05:01:41;;;;;;;16.92;7.47;;;9.00;99.90;;;;;;5022144;28;20058;-71
2022/06/02 05:04:20;;;;;;;12.02;6.32;;;9.10;99.90;;;;;;5022704;28;20044;-69
2022/06/02 05:07:00;;;;;;;16.17;7.57;;;9.20;99.90;;;;;;5023935;28;20025;-71
2022/06/02 05:10:11;;;;;;;18.92;7.10;;;9.20;99.90;;;;;;5004155;28;20038;-71
2022/06/02 05:12:45;;;;;;;15.32;7.68;;;9.30;99.90;;;;;;4992053;28;20061;-72
2022/06/02 05:15:20;;;;;;;14.00;6.63;;;9.30;99.90;;;;;;5020773;28;20046;-71
2022/06/02 05:18:08;;;;;;;11.77;6.00;;;9.40;99.90;;;;;;5023024;28;20037;-68
2022/06/02 05:20:58;;;;;;;15.88;6.63;;;9.50;99.90;;;;;;5022452;28;20021;-70
2022/06/02 05:23:44;;;;;;;14.80;6.97;;;9.60;99.90;;;;;;5023240;28;20022;-72
2022/06/02 05:26:40;;;;;;;17.30;6.30;;;9.70;99.90;;;;;;5023428;28;20026;-69
2022/06/02 05:29:15;;;;;;;12.77;7.03;;;9.70;99.90;;;;;;5003890;28;20025;-69
2022/06/02 05:31:40;;;;;;;15.15;6.30;;;9.80;99.90;;;;;;5022873;28;20053;-69
2022/06/02 05:34:19;;;;;;;12.02;6.05;;;9.90;99.90;;;;;;5014549;28;20038;-70
2022/06/02 05:36:54;;;;;;;9.95;5.03;;;10.00;99.90;;;;;;5020161;28;20030;-70
2022/06/02 05:39:49;;;;;;;10.13;6.18;;;10.00;99.90;;;;;;5023114;28;20147;-69
2022/06/02 05:42:45;;;;;;;13.60;7.03;;;10.10;99.90;;;;;;5002606;28;20041;-71
2022/06/02 05:45:13;;;;;;;8.93;4.95;;;10.20;99.90;;;;;;5020880;28;20038;-71
2022/06/02 05:47:53;;;;;;;12.95;6.30;;;10.30;99.90;;;;;;5021756;28;20025;-71
2022/06/02 05:50:38;;;;;;;14.75;5.93;;;10.30;99.90;;;;;;5021488;28;20033;-70
2022/06/02 05:53:26;;;;;;;10.48;4.80;;;10.40;99.90;;;;;;5022823;28;20026;-72
2022/06/02 05:56:14;;;;;;;12.43;5.47;;;10.50;99.90;;;;;;5023428;28;20075;-71
2022/06/02 05:59:04;;;;;;;9.30;5.07;;;10.70;99.90;;;;;;5004639;28;20046;-70
2022/06/02 06:01:51;;;;;;;10.23;5.32;;;10.60;99.90;;;;;;5022564;28;20069;-73
2022/06/02 06:04:35;;;;;;;9.40;5.60;;;10.70;99.90;;;;;;5022438;28;20038;-71
2022/06/02 06:07:26;;;;;;;12.57;5.32;;;10.80;99.90;;;;;;5021796;28;20030;-69
2022/06/02 06:10:12;;;;;;;9.00;4.45;;;10.80;99.90;;;;;;5004361;28;20030;-71
2022/06/02 06:12:38;;;;;;;7.85;4.38;;;10.90;99.90;;;;;;5020343;28;20041;-71
2022/06/02 06:15:10;;;;;;;7.50;3.85;;;11.00;99.90;;;;;;5003486;28;20050;-73
2022/06/02 06:18:06;;;;;;;7.45;4.78;;;11.10;99.90;;;;;;5004900;28;20565;-71
2022/06/02 06:21:07;;;;;;;5.63;3.55;;;11.10;99.90;;;;;;5022472;28;20034;-69
2022/06/02 06:23:51;;;;;;;6.47;3.80;;;11.20;99.90;;;;;;4985480;28;20038;-72
2022/06/02 06:26:46;;;;;;;8.15;3.85;;;11.30;99.90;;;;;;5019768;28;20689;-69
2022/06/02 06:29:19;;;;;;;20.38;4.40;;;11.40;99.90;;;;;;5022020;28;20025;-71
2022/06/02 06:32:19;;;;;;;7.22;3.30;;;11.50;99.90;;;;;;5004988;28;20033;-71
2022/06/02 06:34:51;;;;;;;6.53;3.15;;;11.50;99.90;;;;;;5004507;28;20030;-73
2022/06/02 06:38:06;;;;;;;3.88;2.40;;;11.70;99.90;;;;;;5022576;28;20025;-74
2022/06/02 06:41:10;;;;;;;6.28;3.15;;;11.60;99.90;;;;;;5018992;28;20026;-70
2022/06/02 06:44:00;;;;;;;5.63;3.20;;;11.60;99.90;;;;;;5021211;28;20034;-71
2022/06/02 06:46:36;;;;;;;10.18;3.72;;;11.70;99.90;;;;;;5022463;28;20034;-73
2022/06/02 06:49:18;;;;;;;4.70;2.85;;;11.80;99.90;;;;;;5020912;28;20045;-74
2022/06/02 06:51:56;;;;;;;3.90;2.55;;;11.90;99.90;;;;;;5019478;28;20037;-71
2022/06/02 06:54:46;;;;;;;6.45;3.08;;;11.90;99.90;;;;;;5020560;28;20089;-73
2022/06/02 06:57:20;;;;;;;3.88;2.40;;;12.00;99.90;;;;;;5021074;28;20116;-70
2022/06/02 07:00:02;;;;;;;3.75;2.47;;;12.10;99.90;;;;;;5002120;28;20041;-70
2022/06/02 07:03:16;;;;;;;4.93;2.67;;;12.20;99.90;;;;;;5021532;28;20033;-70
2022/06/02 07:05:49;;;;;;;3.72;1.65;;;12.30;99.90;;;;;;5011494;28;20120;-72
2022/06/02 07:08:39;;;;;;;3.92;2.17;;;12.40;99.90;;;;;;5004102;28;20021;-72
2022/06/02 07:12:50;;;;;;;3.53;1.98;;;12.50;99.90;;;;;;5021524;28;20096;-70
2022/06/02 07:14:24;;;;;;;5.13;1.63;;;12.60;99.90;;;;;;5020526;28;20062;-72
2022/06/02 07:16:55;;;;;;;3.10;1.42;;;12.70;99.90;;;;;;5002810;28;20049;-71
2022/06/02 07:19:32;;;;;;;9.50;1.90;;;12.70;99.90;;;;;;5002893;28;20045;-72
2022/06/02 07:22:17;;;;;;;2.20;1.23;;;12.80;99.90;;;;;;5022539;28;20546;-72
2022/06/02 07:25:13;;;;;;;4.65;1.77;;;12.90;99.90;;;;;;5024064;28;20033;-72
2022/06/02 07:28:00;;;;;;;3.60;1.90;;;12.90;99.90;;;;;;5025599;28;20022;-72
2022/06/02 07:31:03;;;;;;;3.15;1.88;;;12.90;99.90;;;;;;5024473;28;20054;-75
2022/06/02 07:33:35;;;;;;;2.45;1.00;;;13.00;99.90;;;;;;5024620;28;20042;-74
2022/06/02 07:36:21;;;;;;;6.38;1.85;;;13.10;99.90;;;;;;5024921;28;20030;-73
2022/06/02 07:39:23;;;;;;;6.03;1.60;;;13.10;99.90;;;;;;5008100;28;20041;-77
2022/06/02 07:42:09;;;;;;;1.38;0.95;;;13.10;99.90;;;;;;5006113;28;20368;-74
2022/06/02 07:44:48;;;;;;;2.30;1.60;;;13.20;99.90;;;;;;5006527;28;20042;-74
2022/06/02 07:47:37;;;;;;;3.05;1.55;;;13.30;99.90;;;;;;5025203;28;20014;-73
2022/06/02 07:50:19;;;;;;;1.20;0.90;;;13.40;99.90;;;;;;5004669;28;20036;-75
2022/06/02 07:52:59;;;;;;;1.77;1.10;;;13.50;99.90;;;;;;5004982;28;20536;-73
2022/06/02 07:55:28;;;;;;;3.00;1.55;;;13.50;99.90;;;;;;5021694;28;20030;-74
2022/06/02 07:58:02;;;;;;;5.05;1.10;;;13.60;99.90;;;;;;5025002;28;20037;-75
2022/06/02 08:00:49;;;;;;;2.22;1.20;;;13.70;99.90;;;;;;5004539;28;20034;-72
2022/06/02 08:03:44;;;;;;;1.30;0.88;;;13.80;99.90;;;;;;5006421;28;20068;-75
2022/06/02 08:06:25;;;;;;;3.17;0.90;;;13.90;99.90;;;;;;5006468;28;20030;-75
2022/06/02 08:09:51;;;;;;;7.40;1.33;;;13.90;99.90;;;;;;5024431;28;20022;-75
2022/06/02 08:12:32;;;;;;;1.38;1.00;;;14.10;99.90;;;;;;4962488;28;20240;-73
2022/06/02 08:15:25;;;;;;;1.73;1.10;;;14.30;99.90;;;;;;4963780;29;20051;-75
2022/06/02 08:17:54;;;;;;;1.60;1.15;;;14.40;99.90;;;;;;4995384;28;20050;-75
2022/06/02 08:20:49;;;;;;;4.90;1.20;;;14.30;99.90;;;;;;5004917;28;20077;-75
2022/06/02 08:23:41;;;;;;;1.85;1.23;;;14.20;99.90;;;;;;4994203;28;20041;-74
2022/06/02 08:26:19;;;;;;;3.28;1.00;;;14.30;99.90;;;;;;5004618;28;20037;-75
2022/06/02 08:28:56;;;;;;;1.85;1.00;;;14.40;99.90;;;;;;5004392;28;20017;-76
2022/06/02 08:31:57;;;;;;;0.85;0.77;;;14.60;99.90;;;;;;5004293;28;20384;-75
2022/06/02 08:34:30;;;;;;;2.03;1.00;;;14.80;99.90;;;;;;5002769;28;20030;-76
2022/06/02 08:37:16;;;;;;;1.40;0.80;;;15.00;99.90;;;;;;5003006;28;20035;-76
2022/06/02 08:40:10;;;;;;;5.05;0.90;;;15.10;99.90;;;;;;5004113;28;20070;-75
2022/06/02 08:42:57;;;;;;;0.82;0.60;;;15.10;99.90;;;;;;4999944;28;20026;-73
2022/06/02 08:45:27;;;;;;;1.25;1.08;;;15.20;99.90;;;;;;5001849;28;20095;-74
2022/06/02 08:48:12;;;;;;;6.60;1.02;;;15.10;99.90;;;;;;5000796;28;20027;-75
2022/06/02 08:51:00;;;;;;;2.50;1.02;;;15.00;99.90;;;;;;5003281;28;20022;-75
2022/06/02 08:53:47;;;;;;;2.10;0.95;;;14.90;99.90;;;;;;5002309;28;20141;-75
2022/06/02 08:56:51;;;;;;;1.33;0.93;;;15.00;99.90;;;;;;5003495;28;20061;-73
2022/06/02 08:59:49;;;;;;;3.75;1.48;;;15.30;99.90;;;;;;5000897;28;20076;-73
2022/06/02 09:02:42;;;;;;;2.17;1.10;;;15.40;99.90;;;;;;5003169;28;20030;-76
2022/06/02 09:05:45;;;;;;;4.15;1.23;;;15.20;99.90;;;;;;5000594;28;20015;-74
2022/06/02 09:08:47;;;;;;;6.40;1.30;;;15.10;99.90;;;;;;5002778;28;20062;-72
2022/06/02 09:11:23;;;;;;;1.48;1.02;;;14.90;99.90;;;;;;5002929;28;20034;-73
2022/06/02 09:14:08;;;;;;;2.40;1.15;;;15.10;99.90;;;;;;5004145;28;20098;-73
2022/06/02 09:16:37;;;;;;;3.35;1.25;;;15.40;99.90;;;;;;5022084;28;20092;-75
2022/06/02 09:19:12;;;;;;;7.70;1.23;;;15.40;99.90;;;;;;5022749;28;20040;-73
2022/06/02 09:21:53;;;;;;;2.30;1.00;;;15.40;99.90;;;;;;5023677;28;20026;-77
2022/06/02 09:24:33;;;;;;;3.78;1.70;;;15.40;99.90;;;;;;5004281;28;20034;-74
2022/06/02 09:27:38;;;;;;;2.25;1.30;;;15.50;99.90;;;;;;5022538;28;20025;-75
2022/06/02 09:30:13;;;;;;;1.60;0.93;;;15.50;99.90;;;;;;5001755;28;20156;-76
2022/06/02 09:33:33;;;;;;;4.90;1.50;;;15.40;99.90;;;;;;5018311;28;20049;-73
2022/06/02 09:36:27;;;;;;;1.67;1.30;;;15.30;99.90;;;;;;5020859;28;20046;-75
2022/06/02 09:39:39;;;;;;;1.27;0.90;;;15.30;99.90;;;;;;5000903;28;20044;-74
2022/06/02 09:42:22;;;;;;;1.35;1.08;;;15.70;99.90;;;;;;5017340;28;20025;-70
2022/06/02 09:45:24;;;;;;;2.10;1.02;;;16.00;99.90;;;;;;5018430;28;20026;-74
2022/06/02 09:48:20;;;;;;;1.05;0.68;;;16.20;99.90;;;;;;5019424;28;20018;-72
2022/06/02 09:51:11;;;;;;;2.95;1.00;;;16.20;99.90;;;;;;4931499;28;20115;-74
2022/06/02 09:54:02;;;;;;;1.33;0.88;;;16.10;99.90;;;;;;5002527;28;20032;-74
2022/06/02 09:56:41;;;;;;;2.45;0.73;;;16.00;99.90;;;;;;5019974;28;20030;-74
2022/06/02 09:59:26;;;;;;;3.38;1.02;;;15.90;99.90;;;;;;5018721;28;20046;-75
2022/06/02 10:01:53;;;;;;;;;;;15.70;99.90;;;;;;5018503;28;20029;-74
2022/06/02 10:05:02;;;;;;;8.20;1.08;;;15.70;99.90;;;;;;5018507;28;19906;-74
2022/06/02 10:07:40;;;;;;;4.75;1.33;;;15.50;99.90;;;;;;5018329;28;20026;-73
2022/06/02 10:10:18;;;;;;;8.88;1.20;;;15.50;99.90;;;;;;5019726;28;20037;-75
2022/06/02 10:13:02;;;;;;;8.35;1.05;;;15.40;99.90;;;;;;5017784;28;20034;-74
2022/06/02 10:15:43;;;;;;;2.15;0.75;;;15.40;99.90;;;;;;5019005;28;20116;-75
2022/06/02 10:18:14;;;;;;;0.70;0.70;;;15.50;99.90;;;;;;5019500;28;20128;-74
2022/06/02 10:20:51;;;;;;;2.30;1.48;;;15.60;99.90;;;;;;5001059;28;20065;-72
2022/06/02 10:23:40;;;;;;;3.00;1.50;;;15.60;99.90;;;;;;5019751;28;20545;-75
2022/06/02 10:26:10;;;;;;;3.67;1.30;;;15.60;99.90;;;;;;5018798;28;20026;-73
2022/06/02 10:29:17;;;;;;;2.65;1.15;;;15.60;99.90;;;;;;5018727;28;20028;-74
2022/06/02 10:32:01;;;;;;;1.80;0.90;;;15.50;99.90;;;;;;5000432;28;20842;-76
2022/06/02 10:34:51;;;;;;;1.63;1.10;;;15.50;99.90;;;;;;5017449;28;20402;-75
2022/06/02 10:37:38;;;;;;;1.30;0.93;;;15.50;99.90;;;;;;5000188;28;20034;-72
2022/06/02 10:40:35;;;;;;;1.60;1.00;;;15.50;99.90;;;;;;5000325;28;20052;-76
2022/06/02 10:43:13;;;;;;;2.78;0.80;;;15.50;99.90;;;;;;5017887;28;20038;-76
2022/06/02 10:46:15;;;;;;;4.50;1.45;;;15.60;99.90;;;;;;5018998;28;20030;-73
2022/06/02 10:49:10;;;;;;;4.95;1.10;;;15.70;99.90;;;;;;5017223;28;20065;-73
2022/06/02 10:52:14;;;;;;;1.15;0.90;;;15.90;99.90;;;;;;5019053;28;20018;-73
2022/06/02 10:55:17;;;;;;;1.48;1.00;;;16.00;99.90;;;;;;5019587;28;20034;-73
2022/06/02 10:58:01;;;;;;;3.10;1.02;;;15.90;99.90;;;;;;5022428;28;20037;-74
2022/06/02 11:00:48;;;;;;;0.65;0.60;;;15.90;99.90;;;;;;5022500;28;20042;-74
2022/06/02 11:03:38;;;;;;;2.58;0.98;;;15.90;99.90;;;;;;5005204;28;20132;-73
2022/06/02 11:06:41;;;;;;;1.73;1.00;;;15.80;99.90;;;;;;5021243;28;20635;-75
2022/06/02 11:09:25;;;;;;;5.78;1.35;;;15.80;99.90;;;;;;5021722;28;20065;-78
2022/06/02 11:12:20;;;;;;;3.55;1.00;;;15.90;99.90;;;;;;5022686;28;20387;-74
2022/06/02 11:15:20;;;;;;;3.78;1.15;;;15.90;99.90;;;;;;5022370;28;20049;-73
2022/06/02 11:18:10;;;;;;;1.35;0.80;;;16.00;99.90;;;;;;5022654;28;20026;-72
2022/06/02 11:20:44;;;;;;;3.55;0.95;;;16.00;99.90;;;;;;5022589;28;20038;-74
2022/06/02 11:23:19;;;;;;;;;;;16.00;99.90;;;;;;5022104;28;20120;-70
2022/06/02 11:26:12;;;;;;;3.55;0.85;;;16.20;99.90;;;;;;5022243;28;19909;-72
2022/06/02 11:29:09;;;;;;;4.32;1.10;;;16.30;99.90;;;;;;5022369;28;20034;-73
2022/06/02 11:32:00;;;;;;;2.40;1.00;;;16.50;99.90;;;;;;5021341;28;20091;-76
2022/06/02 11:34:33;;;;;;;2.55;1.10;;;16.80;99.90;;;;;;4994767;28;20038;-74
2022/06/02 11:37:16;;;;;;;4.70;1.23;;;16.80;99.90;;;;;;5022061;28;20045;-74
2022/06/02 11:39:59;;;;;;;1.20;0.75;;;16.70;99.90;;;;;;5002745;28;20131;-72
2022/06/02 11:42:31;;;;;;;1.00;0.70;;;16.60;99.90;;;;;;5004821;28;20026;-74
2022/06/02 11:45:17;;;;;;;4.47;1.10;;;16.40;99.90;;;;;;5004824;28;20038;-70
2022/06/02 11:48:07;;;;;;;2.75;1.08;;;16.30;99.90;;;;;;5022160;28;20080;-72
2022/06/02 11:50:53;;;;;;;2.30;1.17;;;16.30;99.90;;;;;;5020765;28;20474;-74
2022/06/02 11:53:32;;;;;;;1.95;1.00;;;16.30;99.90;;;;;;5011474;28;20109;-72
2022/06/02 11:56:07;;;;;;;0.80;0.57;;;16.40;99.90;;;;;;5021283;28;20029;-76
2022/06/02 11:58:55;;;;;;;2.55;0.93;;;16.70;99.90;;;;;;5020717;28;20045;-77
2022/06/02 12:01:40;;;;;;;1.45;0.95;;;17.20;99.90;;;;;;5021942;28;20049;-72
2022/06/02 12:04:18;;;;;;;1.17;0.73;;;17.80;99.90;;;;;;5021128;28;20010;-73
2022/06/02 12:07:05;;;;;;;3.78;0.90;;;18.20;99.90;;;;;;5002733;28;20831;-74
2022/06/02 12:09:53;;;;;;;2.15;0.85;;;18.50;99.90;;;;;;5021081;28;20036;-73
2022/06/02 12:12:45;;;;;;;1.38;0.95;;;18.50;99.90;;;;;;5021136;28;20026;-76
2022/06/02 12:15:38;;;;;;;1.70;1.00;;;18.30;99.90;;;;;;5021641;28;20045;-75
2022/06/02 12:18:34;;;;;;;1.50;0.80;;;18.00;99.90;;;;;;5021591;28;20495;-71
2022/06/02 12:21:39;;;;;;;2.25;0.70;;;17.90;99.90;;;;;;5022793;28;20022;-72
2022/06/02 12:24:20;;;;;;;1.80;0.95;;;17.80;99.90;;;;;;5005399;28;20494;-76
2022/06/02 12:26:51;;;;;;;1.38;0.80;;;17.80;99.90;;;;;;5022364;28;20034;-74
2022/06/02 12:29:42;;;;;;;2.80;0.85;;;18.00;99.90;;;;;;5022543;28;20036;-73
2022/06/02 12:32:28;;;;;;;7.72;0.98;;;18.40;99.90;;;;;;5022696;28;20021;-72
2022/06/02 12:35:23;;;;;;;0.60;0.60;;;18.60;99.90;;;;;;5018115;28;20026;-73
2022/06/02 12:37:58;;;;;;;;;;;18.60;99.90;;;;;;5019422;28;20117;-74
2022/06/02 12:40:30;;;;;;;;;;;18.90;99.90;;;;;;5021603;28;19914;-73
2022/06/02 12:43:24;;;;;;;3.28;0.90;;;19.30;99.90;;;;;;5021966;28;19906;-75
2022/06/02 12:46:09;;;;;;;1.15;0.68;;;19.60;99.90;;;;;;5022550;28;20032;-74
2022/06/02 12:48:57;;;;;;;1.75;0.80;;;19.90;99.90;;;;;;5022188;28;20449;-73
2022/06/02 12:51:50;;;;;;;1.45;0.85;;;20.20;99.90;;;;;;5021940;28;20037;-73
2022/06/02 12:54:23;;;;;;;0.68;0.60;;;20.60;99.90;;;;;;5003417;28;20976;-74
2022/06/02 12:57:11;;;;;;;1.80;0.50;;;20.80;99.90;;;;;;5020067;28;20690;-73
2022/06/02 13:00:01;;;;;;;1.55;1.05;;;20.60;99.90;;;;;;5020529;28;20042;-73
2022/06/02 13:03:05;;;;;;;2.22;0.82;;;20.50;99.90;;;;;;5003847;28;20120;-72
2022/06/02 13:05:37;;;;;;;1.10;0.80;;;20.20;99.90;;;;;;5020151;28;20035;-73
2022/06/02 13:08:23;;;;;;;1.75;0.82;;;20.20;99.90;;;;;;5021581;28;20509;-73
2022/06/02 13:10:49;;;;;;;2.75;0.85;;;20.30;99.90;;;;;;5020465;28;20298;-75
2022/06/02 13:13:53;;;;;;;4.65;0.70;;;20.80;99.90;;;;;;5002382;28;20743;-74
2022/06/02 13:16:21;;;;;;;0.95;0.70;;;21.00;99.90;;;;;;5020926;28;20084;-80
2022/06/02 13:19:09;;;;;;;0.88;0.60;;;20.70;99.90;;;;;;5021102;28;20034;-73
2022/06/02 13:21:58;;;;;;;0.90;0.70;;;20.50;99.90;;;;;;5003508;28;20363;-74
2022/06/02 13:24:52;;;;;;;1.05;0.73;;;20.80;99.90;;;;;;5020562;28;20160;-74
2022/06/02 13:27:47;;;;;;;1.02;0.63;;;21.30;99.90;;;;;;5003402;28;20041;-74
2022/06/02 13:31:10;;;;;;;1.25;0.80;;;22.00;99.90;;;;;;5020923;28;20029;-76
2022/06/02 13:33:39;;;;;;;1.00;0.52;;;22.50;99.90;;;;;;5021377;28;20026;-75
2022/06/02 13:36:38;;;;;;;1.27;0.70;;;22.30;99.90;;;;;;5002658;28;20054;-75
2022/06/02 13:39:07;;;;;;;1.33;0.85;;;22.50;99.90;;;;;;5020592;28;20049;-73
2022/06/02 13:42:03;;;;;;;4.68;0.50;;;23.00;99.90;;;;;;5021244;28;20030;-74
2022/06/02 13:44:48;;;;;;;0.75;0.50;;;23.40;99.90;;;;;;5020670;28;20030;-72
2022/06/02 13:47:58;;;;;;;0.60;0.40;;;23.40;99.90;;;;;;5020845;28;20037;-73
2022/06/02 13:50:53;;;;;;;0.65;0.35;;;23.40;99.90;;;;;;4986994;28;20036;-73
2022/06/02 14:00:19;;;;;;;0.80;0.50;;;23.30;99.90;;;;;;5020394;28;20088;-74
2022/06/02 14:03:18;;;;;;;3.30;0.65;;;23.40;99.90;;;;;;5019885;28;20037;-77
2022/06/02 14:05:52;;;;;;;0.90;0.60;;;23.70;99.90;;;;;;4976884;28;20056;-76
2022/06/02 14:08:44;;;;;;;0.68;0.60;;;24.00;99.90;;;;;;5019596;28;20029;-75
2022/06/02 14:11:28;;;;;;;1.02;0.60;;;24.30;99.90;;;;;;5019499;28;20966;-71
2022/06/02 14:14:16;;;;;;;0.68;0.60;;;24.30;99.90;;;;;;5001722;28;20026;-74
2022/06/02 14:16:54;;;;;;;0.75;0.45;;;24.50;99.90;;;;;;5020777;28;20038;-74
2022/06/02 14:19:47;;;;;;;0.73;0.43;;;24.30;99.90;;;;;;5019966;28;20038;-73
2022/06/02 14:22:15;;;;;;;3.42;0.70;;;24.30;99.90;;;;;;5020476;28;20037;-75
2022/06/02 14:25:05;;;;;;;2.63;1.20;;;23.60;99.90;;;;;;5003088;28;20025;-75
2022/06/02 14:28:19;;;;;;;2.40;0.85;;;23.30;99.90;;;;;;5019931;28;20038;-74
2022/06/02 14:31:23;;;;;;;1.58;0.65;;;23.50;99.90;;;;;;4986207;28;20033;-74
2022/06/02 14:34:01;;;;;;;0.95;0.52;;;23.90;99.90;;;;;;5002935;28;21144;-73
2022/06/02 14:36:40;;;;;;;0.43;0.38;;;24.20;99.90;;;;;;5020136;28;20022;-73